sensor_id;sensor_type;location;lat;lon;timestamp;P1;durP1;ratioP1;P2;durP2;ratioP2
12800;SDS011;6464;42.494;27.470;2023-02-21T00:02:28;4.33;;;1.83;;
12800;SDS011;6464;42.494;27.470;2023-02-21T00:05:12;2.73;;;1.90;;
12800;SDS011;6464;42.494;27.470;2023-02-21T00:07:57;7.47;;;2.03;;
12800;SDS011;6464;42.494;27.470;2023-02-21T00:10:42;3.27;;;2.77;;
12800;SDS011;6464;42.494;27.470;2023-02-21T00:13:25;7.43;;;2.40;;
12800;SDS011;6464;42.494;27.470;2023-02-21T00:16:12;3.30;;;2.33;;
12800;SDS011;6464;42.494;27.470;2023-02-21T00:18:56;2.93;;;1.17;;
12800;SDS011;6464;42.494;27.470;2023-02-21T00:21:40;3.30;;;2.50;;
12800;SDS011;6464;42.494;27.470;2023-02-21T00:24:26;5.07;;;3.30;;
12800;SDS011;6464;42.494;27.470;2023-02-21T00:27:10;3.37;;;2.17;;
12800;SDS011;6464;42.494;27.470;2023-02-21T00:29:54;2.40;;;1.73;;
12800;SDS011;6464;42.494;27.470;2023-02-21T00:32:39;3.93;;;2.57;;
12800;SDS011;6464;42.494;27.470;2023-02-21T00:35:23;7.23;;;3.43;;
12800;SDS011;6464;42.494;27.470;2023-02-21T00:38:07;2.43;;;1.57;;
12800;SDS011;6464;42.494;27.470;2023-02-21T00:40:53;2.00;;;1.07;;
12800;SDS011;6464;42.494;27.470;2023-02-21T00:43:37;2.87;;;1.50;;
12800;SDS011;6464;42.494;27.470;2023-02-21T00:46:21;1.37;;;1.13;;
12800;SDS011;6464;42.494;27.470;2023-02-21T00:49:05;3.90;;;2.07;;
12800;SDS011;6464;42.494;27.470;2023-02-21T00:51:50;3.70;;;2.63;;
12800;SDS011;6464;42.494;27.470;2023-02-21T00:54:34;2.07;;;1.93;;
12800;SDS011;6464;42.494;27.470;2023-02-21T00:57:21;3.70;;;2.40;;
12800;SDS011;6464;42.494;27.470;2023-02-21T05:05:03;1.57;;;1.27;;
12800;SDS011;6464;42.494;27.470;2023-02-21T05:07:33;1.30;;;1.07;;
12800;SDS011;6464;42.494;27.470;2023-02-21T05:12:50;1.50;;;0.53;;
12800;SDS011;6464;42.494;27.470;2023-02-21T05:15:32;0.70;;;0.70;;
12800;SDS011;6464;42.494;27.470;2023-02-21T05:18:16;0.50;;;0.50;;
12800;SDS011;6464;42.494;27.470;2023-02-21T05:21:20;1.00;;;1.00;;
12800;SDS011;6464;42.494;27.470;2023-02-21T05:24:01;0.97;;;0.97;;
12800;SDS011;6464;42.494;27.470;2023-02-21T05:31:52;0.93;;;0.83;;
12800;SDS011;6464;42.494;27.470;2023-02-21T05:34:23;0.97;;;0.50;;
12800;SDS011;6464;42.494;27.470;2023-02-21T05:39:59;1.60;;;0.63;;
12800;SDS011;6464;42.494;27.470;2023-02-21T05:45:23;0.57;;;0.10;;
12800;SDS011;6464;42.494;27.470;2023-02-21T05:47:53;0.00;;;0.00;;
12800;SDS011;6464;42.494;27.470;2023-02-21T05:50:30;0.67;;;0.67;;
12800;SDS011;6464;42.494;27.470;2023-02-21T05:53:00;1.43;;;1.33;;
12800;SDS011;6464;42.494;27.470;2023-02-21T06:20:37;1.23;;;0.40;;
12800;SDS011;6464;42.494;27.470;2023-02-21T06:23:10;2.57;;;1.03;;
12800;SDS011;6464;42.494;27.470;2023-02-21T06:25:47;0.80;;;0.80;;
12800;SDS011;6464;42.494;27.470;2023-02-21T06:28:17;3.40;;;0.83;;
12800;SDS011;6464;42.494;27.470;2023-02-21T06:30:51;0.60;;;0.60;;
12800;SDS011;6464;42.494;27.470;2023-02-21T06:33:31;0.27;;;0.27;;
12800;SDS011;6464;42.494;27.470;2023-02-21T06:36:06;0.07;;;0.07;;
12800;SDS011;6464;42.494;27.470;2023-02-21T06:38:38;0.47;;;0.47;;
12800;SDS011;6464;42.494;27.470;2023-02-21T07:21:01;0.50;;;0.50;;
12800;SDS011;6464;42.494;27.470;2023-02-21T07:23:36;0.00;;;0.00;;
12800;SDS011;6464;42.494;27.470;2023-02-21T07:28:52;3.83;;;1.23;;
12800;SDS011;6464;42.494;27.470;2023-02-21T07:34:13;1.17;;;0.43;;
12800;SDS011;6464;42.494;27.470;2023-02-21T07:48:19;0.73;;;0.73;;
12800;SDS011;6464;42.494;27.470;2023-02-21T07:50:59;0.77;;;0.20;;
12800;SDS011;6464;42.494;27.470;2023-02-21T07:56:08;0.80;;;0.80;;
12800;SDS011;6464;42.494;27.470;2023-02-21T07:58:55;2.30;;;0.80;;
12800;SDS011;6464;42.494;27.470;2023-02-21T08:01:32;4.83;;;1.20;;
12800;SDS011;6464;42.494;27.470;2023-02-21T08:09:34;0.00;;;0.00;;
12800;SDS011;6464;42.494;27.470;2023-02-21T08:15:15;0.40;;;0.40;;
12800;SDS011;6464;42.494;27.470;2023-02-21T08:17:42;3.70;;;0.50;;
12800;SDS011;6464;42.494;27.470;2023-02-21T08:20:10;1.13;;;0.65;;
12800;SDS011;6464;42.494;27.470;2023-02-21T08:22:39;1.50;;;1.08;;
12800;SDS011;6464;42.494;27.470;2023-02-21T08:25:08;5.20;;;4.80;;
12800;SDS011;6464;42.494;27.470;2023-02-21T08:27:37;4.93;;;0.60;;
12800;SDS011;6464;42.494;27.470;2023-02-21T08:30:04;0.28;;;0.28;;
12800;SDS011;6464;42.494;27.470;2023-02-21T08:35:12;0.63;;;0.40;;
12800;SDS011;6464;42.494;27.470;2023-02-21T08:51:53;2.10;;;1.42;;
12800;SDS011;6464;42.494;27.470;2023-02-21T09:08:36;0.00;;;0.00;;
12800;SDS011;6464;42.494;27.470;2023-02-21T09:14:23;0.00;;;0.00;;
12800;SDS011;6464;42.494;27.470;2023-02-21T09:17:11;0.00;;;0.00;;
12800;SDS011;6464;42.494;27.470;2023-02-21T09:22:59;0.00;;;0.00;;
12800;SDS011;6464;42.494;27.470;2023-02-21T10:10:31;0.00;;;0.00;;
12800;SDS011;6464;42.494;27.470;2023-02-21T10:13:09;0.00;;;0.00;;
12800;SDS011;6464;42.494;27.470;2023-02-21T10:16:11;0.00;;;0.00;;
12800;SDS011;6464;42.494;27.470;2023-02-21T10:27:23;0.00;;;0.00;;
12800;SDS011;6464;42.494;27.470;2023-02-21T10:30:04;0.00;;;0.00;;
12800;SDS011;6464;42.494;27.470;2023-02-21T10:32:34;0.00;;;0.00;;
12800;SDS011;6464;42.494;27.470;2023-02-21T12:15:14;0.00;;;0.00;;
12800;SDS011;6464;42.494;27.470;2023-02-21T12:17:56;0.00;;;0.00;;
12800;SDS011;6464;42.494;27.470;2023-02-21T12:20:33;0.00;;;0.00;;
12800;SDS011;6464;42.494;27.470;2023-02-21T12:23:07;0.00;;;0.00;;
12800;SDS011;6464;42.494;27.470;2023-02-21T12:25:41;0.00;;;0.00;;
12800;SDS011;6464;42.494;27.470;2023-02-21T12:28:12;0.00;;;0.00;;
12800;SDS011;6464;42.494;27.470;2023-02-21T12:30:50;0.00;;;0.00;;
12800;SDS011;6464;42.494;27.470;2023-02-21T12:33:22;0.00;;;0.00;;
12800;SDS011;6464;42.494;27.470;2023-02-21T12:38:40;0.00;;;0.00;;
12800;SDS011;6464;42.494;27.470;2023-02-21T12:41:13;0.00;;;0.00;;
12800;SDS011;6464;42.494;27.470;2023-02-21T12:43:48;0.00;;;0.00;;
12800;SDS011;6464;42.494;27.470;2023-02-21T12:46:20;0.00;;;0.00;;
12800;SDS011;6464;42.494;27.470;2023-02-21T12:48:48;0.00;;;0.00;;
12800;SDS011;6464;42.494;27.470;2023-02-21T12:51:17;0.00;;;0.00;;
12800;SDS011;6464;42.494;27.470;2023-02-21T12:53:48;0.00;;;0.00;;
12800;SDS011;6464;42.494;27.470;2023-02-21T12:56:19;0.00;;;0.00;;
12800;SDS011;6464;42.494;27.470;2023-02-21T12:58:52;0.00;;;0.00;;
12800;SDS011;6464;42.494;27.470;2023-02-21T13:01:24;0.00;;;0.00;;
12800;SDS011;6464;42.494;27.470;2023-02-21T13:03:54;0.00;;;0.00;;
12800;SDS011;6464;42.494;27.470;2023-02-21T13:06:25;0.00;;;0.00;;
12800;SDS011;6464;42.494;27.470;2023-02-21T13:08:55;0.00;;;0.00;;
12800;SDS011;6464;42.494;27.470;2023-02-21T13:11:26;0.00;;;0.00;;
12800;SDS011;6464;42.494;27.470;2023-02-21T13:13:53;0.00;;;0.00;;
12800;SDS011;6464;42.494;27.470;2023-02-21T13:16:20;0.00;;;0.00;;
12800;SDS011;6464;42.494;27.470;2023-02-21T13:18:50;0.00;;;0.00;;
12800;SDS011;6464;42.494;27.470;2023-02-21T13:21:26;0.00;;;0.00;;
12800;SDS011;6464;42.494;27.470;2023-02-21T13:23:57;0.00;;;0.00;;
12800;SDS011;6464;42.494;27.470;2023-02-21T13:26:49;0.00;;;0.00;;
12800;SDS011;6464;42.494;27.470;2023-02-21T13:29:20;0.00;;;0.00;;
12800;SDS011;6464;42.494;27.470;2023-02-21T13:31:57;0.00;;;0.00;;
12800;SDS011;6464;42.494;27.470;2023-02-21T13:34:26;0.00;;;0.00;;
12800;SDS011;6464;42.494;27.470;2023-02-21T13:36:53;0.00;;;0.00;;
12800;SDS011;6464;42.494;27.470;2023-02-21T13:39:26;0.00;;;0.00;;
12800;SDS011;6464;42.494;27.470;2023-02-21T13:42:00;0.00;;;0.00;;
12800;SDS011;6464;42.494;27.470;2023-02-21T13:44:29;0.00;;;0.00;;
12800;SDS011;6464;42.494;27.470;2023-02-21T13:47:04;0.00;;;0.00;;
12800;SDS011;6464;42.494;27.470;2023-02-21T13:49:52;0.00;;;0.00;;
12800;SDS011;6464;42.494;27.470;2023-02-21T13:52:36;0.00;;;0.00;;
12800;SDS011;6464;42.494;27.470;2023-02-21T13:55:20;0.00;;;0.00;;
12800;SDS011;6464;42.494;27.470;2023-02-21T13:57:47;0.00;;;0.00;;
12800;SDS011;6464;42.494;27.470;2023-02-21T14:02:59;0.00;;;0.00;;
12800;SDS011;6464;42.494;27.470;2023-02-21T14:06:14;0.00;;;0.00;;
12800;SDS011;6464;42.494;27.470;2023-02-21T14:08:15;0.00;;;0.00;;
12800;SDS011;6464;42.494;27.470;2023-02-21T14:10:44;0.00;;;0.00;;
12800;SDS011;6464;42.494;27.470;2023-02-21T14:13:19;0.00;;;0.00;;
12800;SDS011;6464;42.494;27.470;2023-02-21T14:15:48;0.00;;;0.00;;
12800;SDS011;6464;42.494;27.470;2023-02-21T14:18:16;0.00;;;0.00;;
12800;SDS011;6464;42.494;27.470;2023-02-21T14:20:47;0.00;;;0.00;;
12800;SDS011;6464;42.494;27.470;2023-02-21T14:23:14;0.00;;;0.00;;
12800;SDS011;6464;42.494;27.470;2023-02-21T14:25:41;0.00;;;0.00;;
12800;SDS011;6464;42.494;27.470;2023-02-21T14:34:07;0.00;;;0.00;;
12800;SDS011;6464;42.494;27.470;2023-02-21T14:36:36;0.00;;;0.00;;
12800;SDS011;6464;42.494;27.470;2023-02-21T14:39:04;0.00;;;0.00;;
12800;SDS011;6464;42.494;27.470;2023-02-21T14:41:42;0.00;;;0.00;;
12800;SDS011;6464;42.494;27.470;2023-02-21T14:44:27;0.00;;;0.00;;
12800;SDS011;6464;42.494;27.470;2023-02-21T14:47:06;0.00;;;0.00;;
12800;SDS011;6464;42.494;27.470;2023-02-21T14:49:43;0.00;;;0.00;;
12800;SDS011;6464;42.494;27.470;2023-02-21T15:00:56;0.00;;;0.00;;
12800;SDS011;6464;42.494;27.470;2023-02-21T15:03:26;0.00;;;0.00;;
12800;SDS011;6464;42.494;27.470;2023-02-21T15:06:02;0.00;;;0.00;;
12800;SDS011;6464;42.494;27.470;2023-02-21T15:08:38;0.00;;;0.00;;
12800;SDS011;6464;42.494;27.470;2023-02-21T15:11:12;0.00;;;0.00;;
12800;SDS011;6464;42.494;27.470;2023-02-21T15:13:41;0.00;;;0.00;;
12800;SDS011;6464;42.494;27.470;2023-02-21T15:16:11;0.00;;;0.00;;
12800;SDS011;6464;42.494;27.470;2023-02-21T15:18:38;0.00;;;0.00;;
12800;SDS011;6464;42.494;27.470;2023-02-21T15:21:06;0.00;;;0.00;;
12800;SDS011;6464;42.494;27.470;2023-02-21T15:23:36;0.00;;;0.00;;
12800;SDS011;6464;42.494;27.470;2023-02-21T18:01:03;0.15;;;0.15;;
12800;SDS011;6464;42.494;27.470;2023-02-21T18:03:40;0.00;;;0.00;;
12800;SDS011;6464;42.494;27.470;2023-02-21T18:06:17;0.10;;;0.10;;
12800;SDS011;6464;42.494;27.470;2023-02-21T18:11:51;0.00;;;0.00;;
12800;SDS011;6464;42.494;27.470;2023-02-21T18:17:57;0.00;;;0.00;;
12800;SDS011;6464;42.494;27.470;2023-02-21T18:20:38;0.00;;;0.00;;
12800;SDS011;6464;42.494;27.470;2023-02-21T18:23:21;0.23;;;0.23;;
12800;SDS011;6464;42.494;27.470;2023-02-21T18:25:59;0.22;;;0.22;;
12800;SDS011;6464;42.494;27.470;2023-02-21T18:28:34;0.00;;;0.00;;
12800;SDS011;6464;42.494;27.470;2023-02-21T18:31:05;0.77;;;0.77;;
12800;SDS011;6464;42.494;27.470;2023-02-21T18:36:42;0.00;;;0.00;;
12800;SDS011;6464;42.494;27.470;2023-02-21T18:39:19;0.00;;;0.00;;
12800;SDS011;6464;42.494;27.470;2023-02-21T18:44:43;0.00;;;0.00;;
12800;SDS011;6464;42.494;27.470;2023-02-21T18:55:50;0.00;;;0.00;;
12800;SDS011;6464;42.494;27.470;2023-02-21T19:20:19;0.00;;;0.00;;
12800;SDS011;6464;42.494;27.470;2023-02-21T19:22:49;0.00;;;0.00;;
12800;SDS011;6464;42.494;27.470;2023-02-21T19:25:20;0.00;;;0.00;;
12800;SDS011;6464;42.494;27.470;2023-02-21T19:27:50;0.00;;;0.00;;
12800;SDS011;6464;42.494;27.470;2023-02-21T19:30:20;0.00;;;0.00;;
12800;SDS011;6464;42.494;27.470;2023-02-21T19:32:47;0.00;;;0.00;;
12800;SDS011;6464;42.494;27.470;2023-02-21T19:35:21;0.00;;;0.00;;
12800;SDS011;6464;42.494;27.470;2023-02-21T19:38:02;0.00;;;0.00;;
12800;SDS011;6464;42.494;27.470;2023-02-21T19:40:41;0.00;;;0.00;;
12800;SDS011;6464;42.494;27.470;2023-02-21T19:43:09;0.00;;;0.00;;
12800;SDS011;6464;42.494;27.470;2023-02-21T19:45:36;0.00;;;0.00;;
12800;SDS011;6464;42.494;27.470;2023-02-21T19:48:04;0.00;;;0.00;;
12800;SDS011;6464;42.494;27.470;2023-02-21T19:53:44;0.10;;;0.10;;
12800;SDS011;6464;42.494;27.470;2023-02-21T19:56:12;0.00;;;0.00;;
12800;SDS011;6464;42.494;27.470;2023-02-21T19:58:40;0.00;;;0.00;;
12800;SDS011;6464;42.494;27.470;2023-02-21T20:01:11;0.00;;;0.00;;
12800;SDS011;6464;42.494;27.470;2023-02-21T20:03:39;0.07;;;0.07;;
12800;SDS011;6464;42.494;27.470;2023-02-21T20:06:13;0.20;;;0.20;;
12800;SDS011;6464;42.494;27.470;2023-02-21T20:08:51;0.10;;;0.10;;
12800;SDS011;6464;42.494;27.470;2023-02-21T20:14:10;0.40;;;0.40;;
12800;SDS011;6464;42.494;27.470;2023-02-21T20:16:49;0.00;;;0.00;;
12800;SDS011;6464;42.494;27.470;2023-02-21T20:27:41;0.50;;;0.50;;
12800;SDS011;6464;42.494;27.470;2023-02-21T20:30:20;0.83;;;0.83;;
12800;SDS011;6464;42.494;27.470;2023-02-21T20:35:48;0.00;;;0.00;;
12800;SDS011;6464;42.494;27.470;2023-02-21T21:40:51;0.00;;;0.00;;
12800;SDS011;6464;42.494;27.470;2023-02-21T21:43:19;0.37;;;0.37;;
12800;SDS011;6464;42.494;27.470;2023-02-21T21:46:00;0.10;;;0.10;;
12800;SDS011;6464;42.494;27.470;2023-02-21T21:48:44;0.20;;;0.20;;
12800;SDS011;6464;42.494;27.470;2023-02-21T21:51:17;0.00;;;0.00;;
12800;SDS011;6464;42.494;27.470;2023-02-21T21:53:52;0.20;;;0.20;;
12800;SDS011;6464;42.494;27.470;2023-02-21T21:56:37;0.00;;;0.00;;
12800;SDS011;6464;42.494;27.470;2023-02-21T21:59:18;0.00;;;0.00;;
12800;SDS011;6464;42.494;27.470;2023-02-21T22:07:11;0.00;;;0.00;;
12800;SDS011;6464;42.494;27.470;2023-02-21T22:09:53;0.00;;;0.00;;
12800;SDS011;6464;42.494;27.470;2023-02-21T22:33:20;0.10;;;0.10;;
12800;SDS011;6464;42.494;27.470;2023-02-21T22:41:17;0.10;;;0.10;;
